Terminal Aerodrome Forecast
Issued by NWS Topeka, KS

Home | Current Version | Previous Version | Graphics & Text | Print | Product List | Glossary On
Versions: 1 2 3 4 5 6 7 8 9 10 11 12 13
000
FTUS43 KTOP 251100
TAFTOP
TAF
KTOP 251132Z 2512/2612 18004KT P6SM SCT200
     FM251700 22010G18KT P6SM FEW070 BKN100
     FM252300 32018G25KT 4SM -RASN BKN025
     FM260500 34024G32KT P6SM OVC015=

USA.gov is the U.S. government's official web portal to all federal, state and local government web resources and services.